Portada
METAR-TAF:

METAR-TAF

Aeroports :

Aeroport de Varsòvia Chopin

Varsòvia, Polònia

latitud: 52-10N, longitud: 020-58E, altitud: 106 m

Observació

L'informe es va fer fa 35 minuts, a les 00:00 UTC
Vent 4 kt del Oest/Nord-Oest
Temperatura 16°C
Humitat 94%
Pressió 1019 hPa
Visibilitat 10 km o més
sense núvols per sota de 1500 mi sense presència de cumulonimbus.

METAR: EPWA 160000Z 30004KT CAVOK 16/15 Q1019 NOSIG

Hora: 02:35 (00:35 UTC)

Pronòstic

L'informe es va fer fa 1 hora i 5 minuts, a les 23:30 UTC
Pronòstic vàlid del 16 a les 00 UTC al 16 a les 24 UTC
Vent 5 kt del Oest/Nord-Oest
Visibilitat 10 km o més
sense núvols per sota de 1500 mi sense presència de cumulonimbus.
Probabilitat 30%
l' 16 a les 02 UTC al 16 a les 05 UTC
Visibilitat: 4500 m
boirina

TAF: EPWA 152330Z 1600/1624 30005KT CAVOK PROB30 1602/1605 4500 BR

Observacions i pronòstics meteorològics de més de 4000 aeroports (METAR i TAF).

Les estacions disponibles són els punts grocs i vermells al mapa.

Posi el ratolí al punt desitjat per veure el nom de l'estació.

Feu clic per veure les observacions i els pronòstics meteorològics.

Per canviar el mapa: feu clic els botons verds amb una creu de color negre per apropar; al botó verd amb un guió per allunyar la imatge; o en les fletxes verdes per a mapes adjacents.


METAR-TAF: